Time,TemperatureF,DewpointF,PressureIn,WindDirection,WindDirectionDegrees,WindSpeedMPH,WindSpeedGustMPH,Humidity,HourlyPrecipIn,Conditions,Clouds,dailyrainin,SoftwareType,DateUTC
2013-01-06 00:09:00,42.9,42.0,30.07,East,92,0.0,-999.0,95,-99.99,,,0.01,weatherlink.com 1.10,2013-01-06 08:09:00,
2013-01-06 00:24:00,42.8,42.0,30.07,East,82,4.0,-999.0,95,-99.99,,,0.04,weatherlink.com 1.10,2013-01-06 08:24:00,
2013-01-06 00:39:00,42.5,41.0,30.07,NW,319,4.0,-999.0,95,-99.99,,,0.06,weatherlink.com 1.10,2013-01-06 08:39:00,
2013-01-06 00:54:00,42.2,41.0,30.08,East,95,0.0,-999.0,95,-99.99,,,0.07,weatherlink.com 1.10,2013-01-06 08:54:00,
2013-01-06 01:09:00,42.2,41.0,30.08,ESE,111,0.0,-999.0,95,-99.99,,,0.09,weatherlink.com 1.10,2013-01-06 09:09:00,
2013-01-06 01:24:00,42.1,41.0,30.09,East,94,3.0,-999.0,95,-99.99,,,0.12,weatherlink.com 1.10,2013-01-06 09:24:00,
2013-01-06 01:39:00,42.1,41.0,30.08,ESE,123,2.0,-999.0,95,-99.99,,,0.15,weatherlink.com 1.10,2013-01-06 09:39:00,
2013-01-06 01:54:00,42.1,41.0,30.08,ENE,61,0.0,-999.0,95,-99.99,,,0.16,weatherlink.com 1.10,2013-01-06 09:54:00,
2013-01-06 02:09:00,42.2,41.0,30.09,West,259,2.0,-999.0,95,-99.99,,,0.16,weatherlink.com 1.10,2013-01-06 10:09:00,
2013-01-06 02:24:00,42.1,41.0,30.09,ESE,102,0.0,-999.0,95,-99.99,,,0.16,weatherlink.com 1.10,2013-01-06 10:24:00,
2013-01-06 02:39:00,42.3,41.0,30.10,WNW,287,0.0,-999.0,95,-99.99,,,0.16,weatherlink.com 1.10,2013-01-06 10:39:00,
2013-01-06 02:54:00,42.3,41.0,30.10,North,360,0.0,-999.0,96,-99.99,,,0.16,weatherlink.com 1.10,2013-01-06 10:54:00,
2013-01-06 03:09:00,42.4,41.0,30.10,NW,314,0.0,-999.0,96,-99.99,,,0.16,weatherlink.com 1.10,2013-01-06 11:09:00,
2013-01-06 03:24:00,42.5,42.0,30.10,WNW,290,0.0,-999.0,96,-99.99,,,0.16,weatherlink.com 1.10,2013-01-06 11:24:00,
2013-01-06 03:39:00,42.7,42.0,30.10,NNW,336,3.0,-999.0,96,-99.99,,,0.16,weatherlink.com 1.10,2013-01-06 11:39:00,
2013-01-06 03:54:00,42.7,41.0,30.10,NW,308,1.0,-999.0,95,-99.99,,,0.16,weatherlink.com 1.10,2013-01-06 11:54:00,
2013-01-06 04:09:00,42.8,42.0,30.11,NW,309,0.0,-999.0,95,-99.99,,,0.16,weatherlink.com 1.10,2013-01-06 12:09:00,
2013-01-06 04:24:00,42.8,42.0,30.11,NW,304,0.0,-999.0,95,-99.99,,,0.16,weatherlink.com 1.10,2013-01-06 12:24:00,
2013-01-06 04:39:00,42.8,42.0,30.11,NW,304,0.0,-999.0,95,-99.99,,,0.16,weatherlink.com 1.10,2013-01-06 12:39:00,
2013-01-06 04:54:00,42.9,42.0,30.12,NW,304,0.0,-999.0,95,-99.99,,,0.16,weatherlink.com 1.10,2013-01-06 12:54:00,
2013-01-06 05:09:00,43.1,42.0,30.11,NW,304,0.0,-999.0,95,-99.99,,,0.16,weatherlink.com 1.10,2013-01-06 13:09:00,
2013-01-06 05:24:00,43.2,42.0,30.12,NW,320,4.0,-999.0,95,-99.99,,,0.16,weatherlink.com 1.10,2013-01-06 13:24:00,
2013-01-06 05:39:00,43.4,42.0,30.13,West,277,2.0,-999.0,95,-99.99,,,0.16,weatherlink.com 1.10,2013-01-06 13:39:00,
2013-01-06 05:54:00,43.4,42.0,30.13,West,275,0.0,-999.0,95,-99.99,,,0.17,weatherlink.com 1.10,2013-01-06 13:54:00,
2013-01-06 06:09:00,43.3,42.0,30.13,WNW,286,3.0,-999.0,95,-99.99,,,0.18,weatherlink.com 1.10,2013-01-06 14:09:00,
2013-01-06 06:24:00,43.2,42.0,30.13,NW,308,0.0,-999.0,95,-99.99,,,0.18,weatherlink.com 1.10,2013-01-06 14:24:00,
2013-01-06 06:39:00,43.1,42.0,30.13,NW,308,0.0,-999.0,95,-99.99,,,0.18,weatherlink.com 1.10,2013-01-06 14:39:00,
2013-01-06 06:54:00,43.3,42.0,30.13,NW,307,0.0,-999.0,95,-99.99,,,0.18,weatherlink.com 1.10,2013-01-06 14:54:00,
2013-01-06 07:09:00,43.3,42.0,30.13,NW,307,0.0,-999.0,95,-99.99,,,0.18,weatherlink.com 1.10,2013-01-06 15:09:00,
2013-01-06 07:24:00,43.3,42.0,30.14,NW,307,0.0,-999.0,95,-99.99,,,0.18,weatherlink.com 1.10,2013-01-06 15:24:00,
2013-01-06 07:39:00,43.4,42.0,30.15,NNW,328,3.0,-999.0,95,-99.99,,,0.18,weatherlink.com 1.10,2013-01-06 15:39:00,
2013-01-06 07:54:00,43.4,42.0,30.14,NW,318,0.0,-999.0,95,-99.99,,,0.18,weatherlink.com 1.10,2013-01-06 15:54:00,
2013-01-06 08:09:00,43.4,42.0,30.15,NW,318,0.0,-999.0,95,-99.99,,,0.18,weatherlink.com 1.10,2013-01-06 16:09:00,
2013-01-06 08:24:00,44.1,43.0,30.16,NW,318,0.0,-999.0,95,-99.99,,,0.18,weatherlink.com 1.10,2013-01-06 16:24:00,
2013-01-06 08:39:00,44.2,43.0,30.16,NW,318,0.0,-999.0,94,-99.99,,,0.18,weatherlink.com 1.10,2013-01-06 16:39:00,
2013-01-06 08:54:00,44.0,42.0,30.18,NW,311,0.0,-999.0,94,-99.99,,,0.18,weatherlink.com 1.10,2013-01-06 16:54:00,
2013-01-06 09:09:00,43.9,42.0,30.18,WNW,300,0.0,-999.0,94,-99.99,,,0.18,weatherlink.com 1.10,2013-01-06 17:09:00,
2013-01-06 09:24:00,43.8,42.0,30.18,WNW,300,0.0,-999.0,94,-99.99,,,0.18,weatherlink.com 1.10,2013-01-06 17:24:00,
2013-01-06 09:39:00,44.6,43.0,30.19,WNW,300,0.0,-999.0,94,-99.99,,,0.18,weatherlink.com 1.10,2013-01-06 17:39:00,
2013-01-06 09:54:00,44.6,43.0,30.19,WNW,299,0.0,-999.0,94,-99.99,,,0.18,weatherlink.com 1.10,2013-01-06 17:54:00,
2013-01-06 10:09:00,45.3,44.0,30.20,ENE,69,0.0,-999.0,94,-99.99,,,0.18,weatherlink.com 1.10,2013-01-06 18:09:00,
2013-01-06 10:24:00,45.4,44.0,30.20,East,82,0.0,-999.0,94,-99.99,,,0.18,weatherlink.com 1.10,2013-01-06 18:24:00,
2013-01-06 10:39:00,45.9,45.0,30.19,East,82,0.0,-999.0,95,-99.99,,,0.18,weatherlink.com 1.10,2013-01-06 18:39:00,
2013-01-06 10:54:00,47.0,46.0,30.19,East,82,0.0,-999.0,95,-99.99,,,0.18,weatherlink.com 1.10,2013-01-06 18:54:00,
2013-01-06 11:09:00,47.1,46.0,30.18,East,82,0.0,-999.0,94,-99.99,,,0.18,weatherlink.com 1.10,2013-01-06 19:09:00,
2013-01-06 11:24:00,47.3,45.0,30.18,East,82,0.0,-999.0,93,-99.99,,,0.18,weatherlink.com 1.10,2013-01-06 19:24:00,
2013-01-06 11:39:00,48.0,45.0,30.17,East,94,0.0,-999.0,89,-99.99,,,0.18,weatherlink.com 1.10,2013-01-06 19:39:00,
2013-01-06 12:09:00,47.4,43.0,30.16,NNW,340,0.0,-999.0,84,-99.99,,,0.18,weatherlink.com 1.10,2013-01-06 20:09:00,
2013-01-06 12:24:00,47.7,44.0,30.16,NNW,340,0.0,-999.0,88,-99.99,,,0.18,weatherlink.com 1.10,2013-01-06 20:24:00,
2013-01-06 12:39:00,48.1,45.0,30.16,NNW,340,0.0,-999.0,88,-99.99,,,0.18,weatherlink.com 1.10,2013-01-06 20:39:00,
2013-01-06 12:54:00,48.0,45.0,30.16,NNW,340,0.0,-999.0,88,-99.99,,,0.18,weatherlink.com 1.10,2013-01-06 20:54:00,
2013-01-06 13:09:00,48.7,44.0,30.15,NNW,329,0.0,-999.0,84,-99.99,,,0.18,weatherlink.com 1.10,2013-01-06 21:09:00,
2013-01-06 13:24:00,49.2,44.0,30.15,NNW,327,0.0,-999.0,83,-99.99,,,0.18,weatherlink.com 1.10,2013-01-06 21:24:00,
2013-01-06 13:39:00,51.0,45.0,30.15,SE,138,0.0,-999.0,80,-99.99,,,0.18,weatherlink.com 1.10,2013-01-06 21:39:00,
2013-01-06 13:54:00,52.3,47.0,30.15,SE,142,0.0,-999.0,81,-99.99,,,0.18,weatherlink.com 1.10,2013-01-06 21:54:00,
2013-01-06 14:09:00,49.0,43.0,30.15,ESE,109,3.0,-999.0,81,-99.99,,,0.18,weatherlink.com 1.10,2013-01-06 22:09:00,
2013-01-06 14:24:00,48.4,44.0,30.15,East,98,3.0,-999.0,83,-99.99,,,0.18,weatherlink.com 1.10,2013-01-06 22:24:00,
2013-01-06 14:39:00,48.1,43.0,30.16,ESE,105,0.0,-999.0,83,-99.99,,,0.18,weatherlink.com 1.10,2013-01-06 22:39:00,
2013-01-06 14:54:00,47.9,43.0,30.16,ESE,105,0.0,-999.0,84,-99.99,,,0.18,weatherlink.com 1.10,2013-01-06 22:54:00,
2013-01-06 15:09:00,48.1,43.0,30.16,ESE,105,0.0,-999.0,83,-99.99,,,0.18,weatherlink.com 1.10,2013-01-06 23:09:00,
2013-01-06 15:24:00,48.3,44.0,30.16,ESE,105,0.0,-999.0,84,-99.99,,,0.18,weatherlink.com 1.10,2013-01-06 23:24:00,
2013-01-06 15:39:00,48.6,45.0,30.16,ESE,105,0.0,-999.0,86,-99.99,,,0.18,weatherlink.com 1.10,2013-01-06 23:39:00,
2013-01-06 15:54:00,49.2,45.0,30.16,SSE,165,2.0,-999.0,84,-99.99,,,0.18,weatherlink.com 1.10,2013-01-06 23:54:00,
2013-01-06 16:09:00,48.7,44.0,30.17,South,182,0.0,-999.0,85,-99.99,,,0.18,weatherlink.com 1.10,2013-01-07 00:09:00,
2013-01-06 16:24:00,48.4,44.0,30.17,South,182,0.0,-999.0,86,-99.99,,,0.18,weatherlink.com 1.10,2013-01-07 00:24:00,
2013-01-06 16:39:00,48.3,45.0,30.17,South,183,1.0,-999.0,87,-99.99,,,0.18,weatherlink.com 1.10,2013-01-07 00:39:00,
2013-01-06 16:54:00,48.4,45.0,30.17,South,184,0.0,-999.0,87,-99.99,,,0.18,weatherlink.com 1.10,2013-01-07 00:54:00,
2013-01-06 17:09:00,48.2,44.0,30.16,South,184,0.0,-999.0,86,-99.99,,,0.18,weatherlink.com 1.10,2013-01-07 01:09:00,
2013-01-06 17:24:00,47.5,43.0,30.16,West,277,0.0,-999.0,85,-99.99,,,0.18,weatherlink.com 1.10,2013-01-07 01:24:00,
2013-01-06 17:39:00,47.3,43.0,30.16,WNW,301,0.0,-999.0,85,-99.99,,,0.18,weatherlink.com 1.10,2013-01-07 01:39:00,
2013-01-06 17:54:00,47.6,43.0,30.16,NNW,327,4.0,-999.0,85,-99.99,,,0.18,weatherlink.com 1.10,2013-01-07 01:54:00,
2013-01-06 18:09:00,47.2,43.0,30.16,WNW,294,0.0,-999.0,85,-99.99,,,0.18,weatherlink.com 1.10,2013-01-07 02:09:00,
2013-01-06 18:24:00,46.9,43.0,30.17,NW,306,7.0,-999.0,85,-99.99,,,0.18,weatherlink.com 1.10,2013-01-07 02:24:00,
2013-01-06 18:39:00,47.1,43.0,30.17,WNW,303,0.0,-999.0,85,-99.99,,,0.18,weatherlink.com 1.10,2013-01-07 02:39:00,
2013-01-06 18:54:00,47.0,43.0,30.17,WNW,300,3.0,-999.0,85,-99.99,,,0.18,weatherlink.com 1.10,2013-01-07 02:54:00,
2013-01-06 19:09:00,46.6,42.0,30.17,WNW,286,0.0,-999.0,85,-99.99,,,0.18,weatherlink.com 1.10,2013-01-07 03:09:00,
2013-01-06 19:24:00,46.7,42.0,30.17,WNW,286,0.0,-999.0,84,-99.99,,,0.18,weatherlink.com 1.10,2013-01-07 03:24:00,
2013-01-06 19:39:00,46.3,42.0,30.18,WNW,286,0.0,-999.0,84,-99.99,,,0.18,weatherlink.com 1.10,2013-01-07 03:39:00,
2013-01-06 19:54:00,46.4,42.0,30.18,WNW,286,0.0,-999.0,85,-99.99,,,0.18,weatherlink.com 1.10,2013-01-07 03:54:00,
2013-01-06 20:09:00,45.9,42.0,30.17,WNW,288,1.0,-999.0,85,-99.99,,,0.18,weatherlink.com 1.10,2013-01-07 04:09:00,
2013-01-06 20:24:00,45.8,42.0,30.18,WNW,293,0.0,-999.0,87,-99.99,,,0.18,weatherlink.com 1.10,2013-01-07 04:24:00,
2013-01-06 20:39:00,45.8,42.0,30.18,NNW,348,1.0,-999.0,87,-99.99,,,0.18,weatherlink.com 1.10,2013-01-07 04:39:00,
2013-01-06 20:54:00,46.3,42.0,30.18,NW,325,0.0,-999.0,86,-99.99,,,0.18,weatherlink.com 1.10,2013-01-07 04:54:00,
2013-01-06 21:09:00,46.3,42.0,30.18,WNW,294,4.0,-999.0,86,-99.99,,,0.18,weatherlink.com 1.10,2013-01-07 05:09:00,
2013-01-06 21:24:00,46.5,43.0,30.18,WNW,294,0.0,-999.0,86,-99.99,,,0.18,weatherlink.com 1.10,2013-01-07 05:24:00,
2013-01-06 21:39:00,46.7,43.0,30.18,West,265,0.0,-999.0,85,-99.99,,,0.18,weatherlink.com 1.10,2013-01-07 05:39:00,
2013-01-06 21:54:00,45.7,42.0,30.18,West,265,0.0,-999.0,87,-99.99,,,0.18,weatherlink.com 1.10,2013-01-07 05:54:00,
2013-01-06 22:09:00,45.0,42.0,30.18,West,265,0.0,-999.0,89,-99.99,,,0.18,weatherlink.com 1.10,2013-01-07 06:09:00,
2013-01-06 22:24:00,45.0,42.0,30.18,West,264,0.0,-999.0,88,-99.99,,,0.18,weatherlink.com 1.10,2013-01-07 06:24:00,
2013-01-06 22:39:00,45.7,42.0,30.17,WNW,291,0.0,-999.0,87,-99.99,,,0.18,weatherlink.com 1.10,2013-01-07 06:39:00,
2013-01-06 22:54:00,46.1,42.0,30.19,NW,326,1.0,-999.0,86,-99.99,,,0.18,weatherlink.com 1.10,2013-01-07 06:54:00,
2013-01-06 23:09:00,46.0,42.0,30.18,WNW,295,2.0,-999.0,86,-99.99,,,0.18,weatherlink.com 1.10,2013-01-07 07:09:00,
2013-01-06 23:24:00,46.0,42.0,30.18,WNW,294,4.0,-999.0,85,-99.99,,,0.18,weatherlink.com 1.10,2013-01-07 07:24:00,
2013-01-06 23:39:00,46.2,42.0,30.19,NNW,333,0.0,-999.0,85,-99.99,,,0.18,weatherlink.com 1.10,2013-01-07 07:39:00,
2013-01-06 23:54:00,45.8,42.0,30.18,WNW,294,5.0,-999.0,85,-99.99,,,0.18,weatherlink.com 1.10,2013-01-07 07:54:00,